createdAt,value
2019-03-03T11:03:02.895Z,5.03
2019-03-03T11:06:14.003Z,5.67
2019-03-03T11:09:36.044Z,5.60
2019-03-03T11:12:41.182Z,5.20
2019-03-03T11:15:58.589Z,5.40
2019-03-03T11:19:06.641Z,6.30
2019-03-03T11:22:14.148Z,5.83
2019-03-03T11:25:28.285Z,5.93
2019-03-03T11:28:51.788Z,5.47
2019-03-03T11:32:00.704Z,5.33
2019-03-03T11:35:22.913Z,5.40
2019-03-03T11:38:28.012Z,5.93
2019-03-03T11:41:36.052Z,4.83
2019-03-03T11:44:41.212Z,5.50
2019-03-03T11:47:46.368Z,5.90
2019-03-03T11:51:00.512Z,5.43
2019-03-03T11:54:05.614Z,5.90
2019-03-03T11:57:10.725Z,5.27
2019-03-03T12:00:15.817Z,5.77
2019-03-03T12:03:26.746Z,5.10
2019-03-03T12:06:31.839Z,5.87
2019-03-03T12:09:39.877Z,6.53
2019-03-03T12:12:50.689Z,6.10
2019-03-03T12:15:58.735Z,6.10
2019-03-03T12:19:10.053Z,6.03
2019-03-03T12:22:33.288Z,6.40
2019-03-03T12:25:47.541Z,6.33
2019-03-03T12:29:04.732Z,5.90
2019-03-03T12:32:12.695Z,5.63
2019-03-03T12:35:21.036Z,6.33
2019-03-03T12:38:35.278Z,6.33
2019-03-03T12:41:58.448Z,6.23
2019-03-03T12:45:03.522Z,6.30
2019-03-03T12:48:24.920Z,6.10
2019-03-03T12:51:30.044Z,5.50
2019-03-03T12:54:35.137Z,5.33
2019-03-03T12:57:56.956Z,6.30
2019-03-03T13:01:23.849Z,6.13
2019-03-03T13:04:29.036Z,6.07
2019-03-03T13:07:46.126Z,6.20
2019-03-03T13:11:03.285Z,5.90
2019-03-03T13:14:24.768Z,6.03
2019-03-03T13:17:35.705Z,5.03
2019-03-03T13:21:01.005Z,5.53
2019-03-03T13:24:06.388Z,6.07
2019-03-03T13:27:11.473Z,6.70
2019-03-03T13:30:19.665Z,5.83
2019-03-03T13:33:30.580Z,5.63
2019-03-03T13:36:38.377Z,5.87
2019-03-03T13:40:01.541Z,5.93
2019-03-03T13:43:05.168Z,5.20
2019-03-03T13:46:08.721Z,5.90
2019-03-03T13:49:12.236Z,5.57
2019-03-03T13:52:15.669Z,6.13
2019-03-03T13:55:19.148Z,5.50
2019-03-03T13:58:22.673Z,5.83
2019-03-03T14:01:26.193Z,4.80
2019-03-03T14:04:29.737Z,5.90
2019-03-03T14:07:33.161Z,5.03
2019-03-03T14:10:36.632Z,5.53
2019-03-03T14:13:40.049Z,5.70
2019-03-03T14:16:43.512Z,5.80
2019-03-03T14:19:46.981Z,6.40
2019-03-03T14:22:51.152Z,5.37
2019-03-03T14:25:54.617Z,5.63
2019-03-03T14:28:58.049Z,4.67
2019-03-03T14:32:01.512Z,5.77
2019-03-03T14:35:06.680Z,5.37
2019-03-03T14:38:10.170Z,4.80
2019-03-03T14:41:13.588Z,4.67
2019-03-03T14:44:17.053Z,4.87
2019-03-03T14:47:20.493Z,4.30
2019-03-03T14:50:24.112Z,4.73
2019-03-03T14:53:27.557Z,4.47
2019-03-03T14:56:31.013Z,4.23
2019-03-03T14:59:34.465Z,3.80
2019-03-03T15:02:39.729Z,3.90
2019-03-03T15:05:43.249Z,3.87
2019-03-03T15:08:46.727Z,3.87
2019-03-03T15:11:50.818Z,3.83
2019-03-03T15:14:54.268Z,3.83
2019-03-03T15:17:57.709Z,3.93
2019-03-03T15:21:01.156Z,3.80
2019-03-03T15:24:05.181Z,3.70
2019-03-03T15:27:08.633Z,4.17
2019-03-03T15:30:17.052Z,3.80
2019-03-03T15:33:20.490Z,4.50
2019-03-03T15:36:23.945Z,4.17
2019-03-03T15:39:27.376Z,4.60
2019-03-03T15:42:30.837Z,3.90
2019-03-03T15:45:34.256Z,4.10
2019-03-03T15:48:37.721Z,4.40
2019-03-03T15:51:41.155Z,3.87
2019-03-03T15:54:44.633Z,4.73
2019-03-03T15:57:48.061Z,4.27
2019-03-03T16:00:51.517Z,4.63
2019-03-03T16:03:54.992Z,4.70
2019-03-03T16:06:58.453Z,4.63
2019-03-03T16:10:01.904Z,4.90
2019-03-03T16:13:05.349Z,4.50
2019-03-03T16:16:08.976Z,8.17
2019-03-03T16:19:12.462Z,5.10
2019-03-03T16:22:15.913Z,5.30
2019-03-03T16:25:25.777Z,5.30
2019-03-03T16:28:29.235Z,4.50
2019-03-03T16:31:32.722Z,4.17
2019-03-03T16:34:36.213Z,4.70
2019-03-03T16:37:39.913Z,5.40
2019-03-03T16:40:43.365Z,4.60
2019-03-03T16:43:46.793Z,5.50
2019-03-03T16:46:50.249Z,5.27
2019-03-03T16:49:53.733Z,5.10
2019-03-03T16:52:57.180Z,5.20
2019-03-03T16:56:00.633Z,5.43
2019-03-03T16:59:04.162Z,5.70
2019-03-03T17:02:07.653Z,5.93
2019-03-03T17:05:13.712Z,5.77
2019-03-03T17:08:17.173Z,5.47
2019-03-03T17:11:20.653Z,5.23
2019-03-03T17:14:24.109Z,5.70
2019-03-03T17:17:27.585Z,5.57
2019-03-03T17:20:31.009Z,5.80
2019-03-03T17:23:34.465Z,5.57
2019-03-03T17:26:37.905Z,6.20
2019-03-03T17:29:41.361Z,6.40
2019-03-03T17:32:44.853Z,6.33
2019-03-03T17:35:48.307Z,5.57
2019-03-03T17:38:51.769Z,5.80
2019-03-03T17:41:55.201Z,5.10
2019-03-03T17:44:58.689Z,4.93
2019-03-03T17:48:02.117Z,5.97
2019-03-03T17:51:05.645Z,5.47
2019-03-03T17:54:09.076Z,5.13
2019-03-03T17:57:12.892Z,5.40
2019-03-03T18:00:25.577Z,5.17
2019-03-03T18:03:29.073Z,5.20
2019-03-03T18:06:38.794Z,4.80
2019-03-03T18:09:37.725Z,5.37
2019-03-03T18:12:41.156Z,5.87
2019-03-03T18:15:44.609Z,5.90
2019-03-03T18:18:48.085Z,5.20
2019-03-03T18:21:51.526Z,5.40
2019-03-03T18:24:54.985Z,6.13
2019-03-03T18:27:58.455Z,6.10
2019-03-03T18:31:01.882Z,5.93
2019-03-03T18:34:05.349Z,5.80
2019-03-03T18:37:08.814Z,5.73
2019-03-03T18:40:20.268Z,6.93
2019-03-03T18:43:23.706Z,6.93
2019-03-03T18:46:35.065Z,7.07
2019-03-03T18:49:38.525Z,5.80
2019-03-03T18:52:41.950Z,6.40
2019-03-03T18:55:45.431Z,6.63
2019-03-03T18:58:48.885Z,5.87
2019-03-03T19:01:52.313Z,6.03
2019-03-03T19:04:55.764Z,5.93
2019-03-03T19:07:59.221Z,6.30
2019-03-03T19:11:02.828Z,6.00
2019-03-03T19:14:06.273Z,6.50
2019-03-03T19:17:09.745Z,6.80
2019-03-03T19:20:15.577Z,6.13
2019-03-03T19:23:19.100Z,6.40
2019-03-03T19:26:22.594Z,6.70
2019-03-03T19:29:26.084Z,7.20
2019-03-03T19:32:29.565Z,6.63
2019-03-03T19:35:33.264Z,6.70
2019-03-03T19:38:36.731Z,6.37
2019-03-03T19:41:40.165Z,7.10
2019-03-03T19:44:43.620Z,6.57
2019-03-03T19:47:47.113Z,6.33
2019-03-03T19:50:50.640Z,6.30
2019-03-03T19:53:54.090Z,6.57
2019-03-03T19:56:57.533Z,6.67
2019-03-03T20:00:01.016Z,6.33
2019-03-03T20:03:05.043Z,6.50
2019-03-03T20:06:08.464Z,6.00
2019-03-03T20:09:12.084Z,5.80
2019-03-03T20:12:15.528Z,6.43
2019-03-03T20:15:18.977Z,6.33
2019-03-03T20:18:22.535Z,6.23
2019-03-03T20:21:26.062Z,6.87
2019-03-03T20:24:29.561Z,6.80
2019-03-03T20:27:33.037Z,6.17
2019-03-03T20:30:36.539Z,6.67
2019-03-03T20:33:40.012Z,5.87
2019-03-03T20:36:43.434Z,6.80
2019-03-03T20:39:46.908Z,6.17
2019-03-03T20:42:50.376Z,6.80
2019-03-03T20:45:53.848Z,7.50
2019-03-03T20:48:57.277Z,6.53
2019-03-03T20:52:00.733Z,5.77
2019-03-03T20:55:06.056Z,6.60
2019-03-03T20:58:09.794Z,6.23
2019-03-03T21:01:13.311Z,6.43
2019-03-03T21:04:16.745Z,6.13
2019-03-03T21:07:20.196Z,6.20
2019-03-03T21:10:25.989Z,5.80
2019-03-03T21:13:29.461Z,5.97
2019-03-03T21:16:32.943Z,5.73
2019-03-03T21:19:36.457Z,6.03
2019-03-03T21:22:39.913Z,5.97
2019-03-03T21:25:43.360Z,6.00
2019-03-03T21:28:46.797Z,5.90
2019-03-03T21:31:50.280Z,5.60
2019-03-03T21:34:53.794Z,6.37
2019-03-03T21:37:58.956Z,6.10
2019-03-03T21:41:02.750Z,5.87
2019-03-03T21:44:06.191Z,5.17
2019-03-03T21:47:09.633Z,5.70
2019-03-03T21:50:15.224Z,5.10
2019-03-03T21:53:18.685Z,5.30
2019-03-03T21:56:22.212Z,5.90
2019-03-03T21:59:25.637Z,5.50
2019-03-03T22:02:29.094Z,6.10
2019-03-03T22:05:32.553Z,5.37
2019-03-03T22:08:35.997Z,5.50
2019-03-03T22:11:39.477Z,4.83
2019-03-03T22:14:42.916Z,5.57
2019-03-03T22:17:46.405Z,6.00
2019-03-03T22:20:49.877Z,5.23
2019-03-03T22:23:53.340Z,5.07
2019-03-03T22:26:56.821Z,5.43
2019-03-03T22:30:00.774Z,5.10
2019-03-03T22:33:04.209Z,5.13
2019-03-03T22:36:07.697Z,5.77
2019-03-03T22:39:11.153Z,5.00
2019-03-03T22:42:14.639Z,5.00
2019-03-03T22:45:18.613Z,5.17
2019-03-03T22:48:22.548Z,5.13
2019-03-03T22:51:25.980Z,5.37
2019-03-03T22:54:29.434Z,4.73
2019-03-03T22:57:32.919Z,5.17
2019-03-03T23:01:01.742Z,5.97
2019-03-03T23:04:17.331Z,5.00
2019-03-03T23:07:45.158Z,5.47
2019-03-03T23:10:51.705Z,4.90
2019-03-03T23:14:16.104Z,6.10
2019-03-03T23:17:30.320Z,5.23
2019-03-03T23:20:39.505Z,5.47
2019-03-03T23:24:01.016Z,5.53
2019-03-03T23:27:04.540Z,5.27
2019-03-03T23:30:09.013Z,5.80
2019-03-03T23:33:12.572Z,5.40
2019-03-03T23:36:16.005Z,5.73
2019-03-03T23:39:19.460Z,5.70
2019-03-03T23:42:22.915Z,5.70
2019-03-03T23:45:26.364Z,5.50
2019-03-03T23:48:29.825Z,4.87
2019-03-03T23:51:33.315Z,5.53
2019-03-03T23:54:36.837Z,5.77
2019-03-03T23:57:40.274Z,5.33
